Hlavní strana
METAR-TAF:

METAR-TAF

Letiště :

Constantine, Alžírsko

zeměpisná šířka: 36-17N, zeměpisná délka: 006-37E, výška: 694 m

Aktuální stav počasí

Zpráva byla vytvořena před 33 minutami, v 20:00 UTC
Východní vítr 4 kt
Teplota 8°C
Vlhkost vzduchu 76%
Tlak 1023 hPa
Viditelnost 10 km a více
Skoro jasno ve výšce 3300 ft
Polojasno ve výšce 20000 ft

METAR: DABC 052000Z 10004KT 9999 FEW033 SCT200 08/04 Q1023

Čas: 21:33 (20:33 UTC)

Předpověď počasí

Zpráva byla vytvořena před 1 hodinou a 40 minutami, v 18:53 UTC
Předpověď platná od 05 v 18 UTC do 06 v 18 UTC
Jihozápadní vítr 8 kt
Viditelnost 10 km a více
Skoro jasno ve výšce 3300 ft
Polojasno ve výšce 20000 ft
Pravděpodobnost 40%
od 06 v 03 UTC do 06 v 08 UTC
Viditelnost: 3000 m
Oblačno až skoro zataženo ve výšce 1000 ft
kouřmo

TAF: DABC 051853Z 0518/0618 23008KT 9999 FEW033 SCT200 PROB40 0603/0608 3000 BR BKN010

Stav a předpovědi počasí z více než 4 000 letišť (zprávy METAR a TAF).

Červené a žluté tečky na mapě představují dostupné meteorologické stanice.

Když kurzor umístíte na tečku, zobrazí se název stanice.

Pak kliknutím zobrazíte stav a předpověď počasí.

Chcete-li změnit mapu, kliknutím na zelené tlačítko se znaménkem +mapu přiblížíte, kliknutím na zelené tlačítko se znaménkem – mapu oddálíte a kliknutím na zelené šipky přejdete na sousední mapy.


METAR-TAF: